WetterOnline ( https://www.wetteronline.de )

Wetter aktuell Harz (in 600m)

Aktuelles Wetter: Braunlage (609m)

6-stündlich | Neueste Meldungen
Ortszeit Temperatur Wetter
So, 26.06. 8:00 21.6° C wolkenlos
So, 26.06. 2:00 16.9° C fast wolkenlos
Sa, 25.06. 20:00 22.4° C leicht bewölkt
Sa, 25.06. 14:00 22.8° C wolkig
Sa, 25.06. 8:00 17.1° C bedeckt
Sa, 25.06. 2:00 15.6° C bedeckt
Fr, 24.06. 20:00 19.2° C bewölkt
Fr, 24.06. 14:00 19.3° C bewölkt
Ortszeit Temperatur Wetter
So, 26.06. 12:00 24.7° C leicht bewölkt
So, 26.06. 11:50 24.7° C leicht bewölkt
So, 26.06. 11:40 24.0° C leicht bewölkt
So, 26.06. 11:30 24.5° C wolkenlos
So, 26.06. 11:20 24.5° C wolkenlos
So, 26.06. 11:10 24.9° C fast wolkenlos
So, 26.06. 11:00 23.4° C leicht bewölkt
So, 26.06. 10:30 24.0° C wolkig
So, 26.06. 10:00 23.6° C wolkig
So, 26.06. 9:30 23.1° C wolkig
So, 26.06. 9:00 22.9° C leicht bewölkt
Ortszeit Relative Feuchte Sichtweite
So, 26.06. 8:00 58% >70 km
So, 26.06. 2:00 75% >70 km
Sa, 25.06. 20:00 54% 50 km
Sa, 25.06. 14:00 47% 55 km
Sa, 25.06. 8:00 82% 55 km
Sa, 25.06. 2:00 89% 45 km
Fr, 24.06. 20:00 73% 65 km
Fr, 24.06. 14:00 73% 55 km
Ortszeit Relative Feuchte Sichtweite
So, 26.06. 12:00 44% >70 km
So, 26.06. 11:50 44% -
So, 26.06. 11:40 45% -
So, 26.06. 11:30 46% >70 km
So, 26.06. 11:20 46% -
So, 26.06. 11:10 43% -
So, 26.06. 11:00 45% >70 km
So, 26.06. 10:30 45% 60 km
So, 26.06. 10:00 45% 3.2 km
So, 26.06. 9:30 48% >70 km
So, 26.06. 9:00 48% >70 km
Ortszeit Niederschlagsmenge Niederschlagsart
So, 26.06. 8:00 0.0 l/m2 in 12 Std. -
So, 26.06. 2:00 0.0 l/m2 in 6 Std. -
Sa, 25.06. 20:00 0.1 l/m2 in 12 Std. Regen
Sa, 25.06. 14:00 0.0 l/m2 in 6 Std. -
Sa, 25.06. 8:00 0.1 l/m2 in 12 Std. Regen
Sa, 25.06. 2:00 0.0 l/m2 in 6 Std. -
Fr, 24.06. 20:00 1 l/m2 in 12 Std. Regen
Fr, 24.06. 14:00 0.1 l/m2 in 6 Std. Regen
Ortszeit Niederschlagsmenge Niederschlagsart
So, 26.06. 12:00 0.0 l/m2 in 1 Std. -
So, 26.06. 11:50 keine Meldung -
So, 26.06. 11:40 keine Meldung -
So, 26.06. 11:30 0.0 l/m2 in 1 Std. -
So, 26.06. 11:20 keine Meldung -
So, 26.06. 11:10 keine Meldung -
So, 26.06. 11:00 0.1 l/m2 in 1 Std. Niederschlag
So, 26.06. 10:30 0.1 l/m2 in 1 Std. Regen
So, 26.06. 10:00 0.1 l/m2 in 1 Std. Niederschlag
So, 26.06. 9:30 0.0 l/m2 in 1 Std. -
So, 26.06. 9:00 0.0 l/m2 in 1 Std. -
Ortszeit Stärke Spitze Richtung
km/h Bft. km/h Grad Sektor
So, 26.06. 8:00 7 2 14 210° SW
So, 26.06. 2:00 4 1 11 340° N
Sa, 25.06. 20:00 9 2 24 60° NO
Sa, 25.06. 14:00 13 3 26 210° SW
Sa, 25.06. 8:00 9 2 20 260° W
Sa, 25.06. 2:00 7 2 18 250° W
Fr, 24.06. 20:00 9 2 28 260° W
Fr, 24.06. 14:00 18 3 32 200° S
Ortszeit Stärke Spitze Richtung
km/h Bft. km/h Grad Sektor
So, 26.06. 12:00 6 1 24 260° W
So, 26.06. 11:50 6 1 - 260° W
So, 26.06. 11:40 11 2 - 230° SW
So, 26.06. 11:30 14 3 25 210° SW
So, 26.06. 11:20 14 3 - 210° SW
So, 26.06. 11:10 11 2 - 210° SW
So, 26.06. 11:00 11 2 25 220° SW
So, 26.06. 10:30 14 3 25 170° S
So, 26.06. 10:00 11 2 22 180° S
So, 26.06. 9:30 9 2 22 230° SW
So, 26.06. 9:00 9 2 22 200° S
Ortszeit Untergrenze Bedeckung Gattung
total tief tief mittel hoch
So, 26.06. 8:00 - 0/8 0/8 - - -
So, 26.06. 2:00 10500 m 2/8 0/8 - - -
Sa, 25.06. 20:00 9000 m 3/8 0/8 - - -
Sa, 25.06. 14:00 1290 m 6/8 6/8 - - -
Sa, 25.06. 8:00 2100 m 8/8 8/8 - - -
Sa, 25.06. 2:00 900 m 8/8 8/8 - - -
Fr, 24.06. 20:00 840 m 7/8 6/8 - - -
Fr, 24.06. 14:00 570 m 8/8 7/8 - - -
Ortszeit Bedeckungsgrad in Achtel und Wolkenuntergrenze
So, 26.06. 12:00 1(2400m) 3(9000m)
So, 26.06. 11:50 1(2400m) 3(9000m)
So, 26.06. 11:40 3
So, 26.06. 11:30 keine Wolken
So, 26.06. 11:20 keine Wolken
So, 26.06. 11:10 1
So, 26.06. 11:00 2(1500m) 3(9000m)
So, 26.06. 10:30 7(7500m) 7(8400m)
So, 26.06. 10:00 3(6600m) 8(7200m) 8(8100m)
So, 26.06. 9:30 4(6900m) 6(8100m)
So, 26.06. 9:00 1(6300m) 3(7500m) 6(8400m)
Ortszeit Luftdruck NN (hPa) Tendenz (hPa in 3 Std.)
So, 26.06. 8:00 1013 + 0,3
So, 26.06. 2:00 1013 - 0,1
Sa, 25.06. 20:00 1011 - 0,2
Sa, 25.06. 14:00 1012 - 0,2
Sa, 25.06. 8:00 1012 + 1,2
Sa, 25.06. 2:00 1010 + 1,0
Fr, 24.06. 20:00 1007 + 0,1
Fr, 24.06. 14:00 1007 - 0,1
Ortszeit Luftdruck NN (hPa) Tendenz (hPa in 3 Std.)
So, 26.06. 12:00 1013 + 0,5
So, 26.06. 11:50 1013 keine Meldung
So, 26.06. 11:40 1014 keine Meldung
So, 26.06. 11:30 1013 + 0,8
So, 26.06. 11:20 1013 keine Meldung
So, 26.06. 11:10 1013 keine Meldung
So, 26.06. 11:00 1014 + 0,8
So, 26.06. 10:30 1013 + 0,6
So, 26.06. 10:00 1013 + 0,6
So, 26.06. 9:30 1013 + 0,6
So, 26.06. 9:00 1013 + 0,6
Ortszeit Schneehöhe (cm)
So, 26.06. 8:00 0
So, 26.06. 2:00 0
Sa, 25.06. 20:00 0
Sa, 25.06. 14:00 0
Sa, 25.06. 8:00 0
Sa, 25.06. 2:00 0
Fr, 24.06. 20:00 0
Fr, 24.06. 14:00 0
Ortszeit Schneehöhe (cm)
So, 26.06. 12:00 0
So, 26.06. 11:50 0
So, 26.06. 11:40 0
So, 26.06. 11:30 0
So, 26.06. 11:20 0
So, 26.06. 11:10 0
So, 26.06. 11:00 0
So, 26.06. 10:30 0
So, 26.06. 10:00 0
So, 26.06. 9:30 0
So, 26.06. 9:00 0
Link zu dieser Seite / Seite empfehlen

Das Wetter in ...